createdAt,value
2024-02-27T00:00:29.950Z,94073.00
2024-02-27T00:01:29.991Z,94070.00
2024-02-27T00:02:30.345Z,94067.00
2024-02-27T00:03:29.967Z,94071.00
2024-02-27T00:04:30.028Z,94062.00
2024-02-27T00:05:30.028Z,94065.00
2024-02-27T00:06:30.036Z,94065.00
2024-02-27T00:07:29.981Z,94069.00
2024-02-27T00:08:29.946Z,94074.00
2024-02-27T00:09:29.956Z,94066.00
2024-02-27T00:10:29.969Z,94068.00
2024-02-27T00:11:29.965Z,94064.00
2024-02-27T00:12:30.338Z,94064.00
2024-02-27T00:13:29.950Z,94061.00
2024-02-27T00:14:29.970Z,94067.00
2024-02-27T00:15:29.991Z,94069.00
2024-02-27T00:16:29.958Z,94069.00
2024-02-27T00:17:30.007Z,94066.00
2024-02-27T00:18:30.177Z,94070.00
2024-02-27T00:19:30.140Z,94071.00
2024-02-27T00:20:30.048Z,94066.00
2024-02-27T00:21:30.041Z,94066.00
2024-02-27T00:22:30.025Z,94067.00
2024-02-27T00:23:29.985Z,94071.00
2024-02-27T00:24:30.101Z,94072.00
2024-02-27T00:25:29.979Z,94077.00
2024-02-27T00:26:29.995Z,94075.00
2024-02-27T00:27:30.088Z,94067.00
2024-02-27T00:28:29.984Z,94065.00
2024-02-27T00:29:30.041Z,94068.00
2024-02-27T00:30:30.060Z,94076.00
2024-02-27T00:31:30.061Z,94075.00
2024-02-27T00:32:30.338Z,94078.00
2024-02-27T00:33:30.034Z,94071.00
2024-02-27T00:34:30.072Z,94071.00
2024-02-27T00:35:30.036Z,94076.00
2024-02-27T00:36:30.230Z,94074.00
2024-02-27T00:37:30.328Z,94075.00
2024-02-27T00:38:30.028Z,94077.00
2024-02-27T00:39:30.129Z,94081.00
2024-02-27T00:40:30.029Z,94082.00
2024-02-27T00:41:30.000Z,94085.00
2024-02-27T00:42:30.438Z,94086.00
2024-02-27T00:43:30.000Z,94092.00
2024-02-27T00:44:30.041Z,94093.00
2024-02-27T00:45:30.019Z,94088.00
2024-02-27T00:46:30.057Z,94089.00
2024-02-27T00:47:30.356Z,94085.00
2024-02-27T00:48:30.149Z,94091.00
2024-02-27T00:49:30.099Z,94087.00
2024-02-27T00:50:30.048Z,94089.00
2024-02-27T00:51:30.058Z,94093.00
2024-02-27T00:52:30.149Z,94088.00
2024-02-27T00:53:30.013Z,94086.00
2024-02-27T00:54:30.094Z,94087.00
2024-02-27T00:55:30.101Z,94088.00
2024-02-27T00:56:30.102Z,94088.00
2024-02-27T00:57:30.182Z,94091.00
2024-02-27T00:58:30.182Z,94092.00
2024-02-27T00:59:30.209Z,94084.00
2024-02-27T01:00:30.224Z,94075.00
2024-02-27T01:01:30.332Z,94080.00
2024-02-27T01:02:30.353Z,94078.00
2024-02-27T01:03:30.458Z,94074.00
2024-02-27T01:04:30.478Z,94075.00
2024-02-27T01:05:30.600Z,94079.00
2024-02-27T01:06:30.592Z,94080.00
2024-02-27T01:07:30.851Z,94086.00
2024-02-27T01:08:30.725Z,94086.00
2024-02-27T01:09:30.718Z,94089.00
2024-02-27T01:10:30.750Z,94096.00
2024-02-27T01:11:30.791Z,94098.00
2024-02-27T01:12:30.894Z,94103.00
2024-02-27T01:13:30.865Z,94090.00
2024-02-27T01:14:30.941Z,94086.00
2024-02-27T01:15:31.035Z,94089.00
2024-02-27T01:16:31.014Z,94092.00
2024-02-27T01:17:31.090Z,94100.00
2024-02-27T01:18:31.212Z,94090.00
2024-02-27T01:19:31.224Z,94084.00
2024-02-27T01:20:31.154Z,94091.00
2024-02-27T01:21:31.257Z,94097.00
2024-02-27T01:22:31.354Z,94094.00
2024-02-27T01:23:31.308Z,94087.00
2024-02-27T01:24:31.453Z,94083.00
2024-02-27T01:25:31.413Z,94080.00
2024-02-27T01:26:31.487Z,94087.00
2024-02-27T01:27:31.613Z,94079.00
2024-02-27T01:28:31.529Z,94083.00
2024-02-27T01:29:31.572Z,94089.00
2024-02-27T01:30:31.687Z,94097.00
2024-02-27T01:31:31.704Z,94094.00
2024-02-27T01:32:31.793Z,94084.00
2024-02-27T01:33:31.893Z,94084.00
2024-02-27T01:34:31.978Z,94087.00
2024-02-27T01:35:31.893Z,94089.00
2024-02-27T01:36:31.933Z,94083.00
2024-02-27T01:37:31.957Z,94079.00
2024-02-27T01:38:32.003Z,94080.00
2024-02-27T01:39:32.127Z,94077.00
2024-02-27T01:40:32.157Z,94081.00
2024-02-27T01:41:32.112Z,94090.00
2024-02-27T01:42:32.376Z,94086.00
2024-02-27T01:43:32.222Z,94080.00
2024-02-27T01:44:32.245Z,94091.00
2024-02-27T01:45:32.394Z,94088.00
2024-02-27T01:46:32.287Z,94084.00
2024-02-27T01:47:32.378Z,94080.00
2024-02-27T01:48:33.402Z,94079.00
2024-02-27T01:49:32.503Z,94078.00
2024-02-27T01:50:32.405Z,94082.00
2024-02-27T01:51:32.482Z,94081.00
2024-02-27T01:52:32.399Z,94079.00
2024-02-27T01:53:32.417Z,94083.00
2024-02-27T01:54:32.570Z,94084.00
2024-02-27T01:55:32.499Z,94084.00
2024-02-27T01:56:32.570Z,94088.00
2024-02-27T01:57:32.659Z,94087.00
2024-02-27T01:58:32.553Z,94084.00
2024-02-27T01:59:32.588Z,94081.00
2024-02-27T02:00:32.628Z,94081.00
2024-02-27T02:01:32.716Z,94082.00
2024-02-27T02:02:32.679Z,94087.00
2024-02-27T02:03:32.708Z,94091.00
2024-02-27T02:04:32.909Z,94083.00
2024-02-27T02:05:32.707Z,94078.00
2024-02-27T02:06:32.837Z,94076.00
2024-02-27T02:07:32.785Z,94081.00
2024-02-27T02:08:32.784Z,94079.00
2024-02-27T02:09:32.906Z,94074.00
2024-02-27T02:10:32.839Z,94081.00
2024-02-27T02:11:32.918Z,94090.00
2024-02-27T02:12:33.030Z,94088.00
2024-02-27T02:13:32.980Z,94073.00
2024-02-27T02:14:32.993Z,94070.00
2024-02-27T02:15:33.113Z,94076.00
2024-02-27T02:16:33.118Z,94079.00
2024-02-27T02:17:33.340Z,94084.00
2024-02-27T02:18:33.402Z,94076.00
2024-02-27T02:19:33.347Z,94075.00
2024-02-27T02:20:33.285Z,94080.00
2024-02-27T02:21:33.346Z,94089.00
2024-02-27T02:22:33.861Z,94086.00
2024-02-27T02:23:33.407Z,94086.00
2024-02-27T02:24:33.461Z,94078.00
2024-02-27T02:25:33.463Z,94082.00
2024-02-27T02:26:33.500Z,94085.00
2024-02-27T02:27:33.910Z,94084.00
2024-02-27T02:28:33.604Z,94087.00
2024-02-27T02:29:33.646Z,94085.00
2024-02-27T02:30:33.790Z,94086.00
2024-02-27T02:31:33.731Z,94087.00
2024-02-27T02:32:33.819Z,94086.00
2024-02-27T02:33:33.916Z,94077.00
2024-02-27T02:34:33.928Z,94087.00
2024-02-27T02:35:33.860Z,94089.00
2024-02-27T02:36:34.022Z,94090.00
2024-02-27T02:37:33.960Z,94090.00
2024-02-27T02:38:33.990Z,94086.00
2024-02-27T02:39:34.094Z,94090.00
2024-02-27T02:40:34.032Z,94088.00
2024-02-27T02:41:34.081Z,94087.00
2024-02-27T02:42:34.398Z,94083.00
2024-02-27T02:43:34.153Z,94082.00
2024-02-27T02:44:34.281Z,94077.00
2024-02-27T02:45:34.244Z,94077.00
2024-02-27T02:46:34.266Z,94081.00
2024-02-27T02:47:34.316Z,94084.00
2024-02-27T02:48:34.479Z,94085.00
2024-02-27T02:49:35.654Z,94087.00
2024-02-27T02:50:34.403Z,94091.00
2024-02-27T02:51:34.467Z,94083.00
2024-02-27T02:52:34.425Z,94077.00
2024-02-27T02:53:34.373Z,94079.00
2024-02-27T02:54:34.436Z,94080.00
2024-02-27T02:55:34.387Z,94077.00
2024-02-27T02:56:34.404Z,94072.00
2024-02-27T02:57:34.440Z,94076.00
2024-02-27T02:58:34.417Z,94081.00
2024-02-27T02:59:34.365Z,94085.00
2024-02-27T03:00:34.463Z,94086.00
2024-02-27T03:01:34.448Z,94084.00
2024-02-27T03:02:34.384Z,94079.00
2024-02-27T03:03:34.548Z,94076.00
2024-02-27T03:04:34.444Z,94079.00
2024-02-27T03:05:34.422Z,94080.00
2024-02-27T03:06:34.540Z,94080.00
2024-02-27T03:07:34.413Z,94081.00
2024-02-27T03:08:34.434Z,94075.00
2024-02-27T03:09:34.419Z,94073.00
2024-02-27T03:10:34.407Z,94073.00
2024-02-27T03:11:34.455Z,94075.00
2024-02-27T03:12:34.929Z,94079.00
2024-02-27T03:13:34.406Z,94078.00
2024-02-27T03:14:34.430Z,94078.00
2024-02-27T03:15:34.494Z,94074.00
2024-02-27T03:16:34.525Z,94075.00
2024-02-27T03:17:34.510Z,94075.00
2024-02-27T03:18:34.517Z,94076.00
2024-02-27T03:19:34.530Z,94080.00
2024-02-27T03:20:34.415Z,94078.00
2024-02-27T03:21:34.498Z,94079.00
2024-02-27T03:22:34.405Z,94081.00
2024-02-27T03:23:34.461Z,94083.00
2024-02-27T03:24:34.553Z,94083.00
2024-02-27T03:25:34.463Z,94084.00
2024-02-27T03:26:34.450Z,94087.00
2024-02-27T03:27:34.544Z,94089.00
2024-02-27T03:28:34.458Z,94092.00
2024-02-27T03:29:34.481Z,94093.00
2024-02-27T03:30:34.509Z,94094.00
2024-02-27T03:31:34.451Z,94094.00
2024-02-27T03:32:34.627Z,94095.00
2024-02-27T03:33:34.669Z,94096.00
2024-02-27T03:34:34.686Z,94100.00
2024-02-27T03:35:34.476Z,94102.00
2024-02-27T03:36:34.494Z,94107.00
2024-02-27T03:37:34.439Z,94108.00
2024-02-27T03:38:34.511Z,94106.00
2024-02-27T03:39:34.519Z,94103.00
2024-02-27T03:40:34.470Z,94098.00
2024-02-27T03:41:34.489Z,94097.00
2024-02-27T03:42:34.562Z,94091.00
2024-02-27T03:43:34.503Z,94088.00
2024-02-27T03:44:34.517Z,94089.00
2024-02-27T03:45:34.538Z,94094.00
2024-02-27T03:46:34.475Z,94093.00
2024-02-27T03:47:34.556Z,94095.00
2024-02-27T03:48:34.630Z,94095.00
2024-02-27T03:49:34.665Z,94096.00
2024-02-27T03:50:34.480Z,94096.00
2024-02-27T03:51:34.589Z,94096.00
2024-02-27T03:52:34.526Z,94098.00
2024-02-27T03:53:34.565Z,94099.00
2024-02-27T03:54:34.628Z,94100.00
2024-02-27T03:55:34.578Z,94101.00
2024-02-27T03:56:34.596Z,94104.00
2024-02-27T03:57:34.813Z,94109.00
2024-02-27T03:58:34.651Z,94109.00
2024-02-27T03:59:34.690Z,94109.00
2024-02-27T04:00:34.813Z,94109.00
2024-02-27T04:01:34.752Z,94107.00
2024-02-27T04:02:34.779Z,94108.00
2024-02-27T04:03:34.864Z,94109.00
2024-02-27T04:04:35.093Z,94108.00
2024-02-27T04:05:34.974Z,94108.00
2024-02-27T04:06:34.962Z,94111.00
2024-02-27T04:07:35.384Z,94114.00
2024-02-27T04:08:34.891Z,94118.00
2024-02-27T04:09:34.990Z,94124.00
2024-02-27T04:10:35.051Z,94126.00
2024-02-27T04:11:35.065Z,94128.00
2024-02-27T04:12:35.179Z,94127.00
2024-02-27T04:13:36.338Z,94123.00
2024-02-27T04:14:35.199Z,94128.00
2024-02-27T04:15:35.236Z,94128.00
2024-02-27T04:16:35.288Z,94128.00
2024-02-27T04:18:35.408Z,94129.00
2024-02-27T04:19:35.524Z,94131.00
2024-02-27T04:20:35.481Z,94132.00
2024-02-27T04:21:35.425Z,94128.00
2024-02-27T04:22:35.472Z,94128.00
2024-02-27T04:23:35.474Z,94130.00
2024-02-27T04:24:35.514Z,94132.00
2024-02-27T04:25:35.486Z,94136.00
2024-02-27T04:26:35.531Z,94136.00
2024-02-27T04:27:35.661Z,94137.00
2024-02-27T04:28:35.714Z,94139.00
2024-02-27T04:29:35.597Z,94141.00
2024-02-27T04:30:35.684Z,94141.00
2024-02-27T04:31:35.655Z,94147.00
2024-02-27T04:32:35.725Z,94151.00
2024-02-27T04:33:35.823Z,94154.00
2024-02-27T04:34:35.923Z,94153.00
2024-02-27T04:35:35.778Z,94155.00
2024-02-27T04:36:35.952Z,94158.00
2024-02-27T04:37:35.896Z,94158.00
2024-02-27T04:38:35.863Z,94162.00
2024-02-27T04:39:35.918Z,94163.00
2024-02-27T04:40:35.922Z,94165.00
2024-02-27T04:41:35.974Z,94167.00
2024-02-27T04:42:36.039Z,94168.00
2024-02-27T04:43:37.845Z,94167.00
2024-02-27T04:44:36.058Z,94162.00
2024-02-27T04:45:36.141Z,94165.00
2024-02-27T04:46:36.138Z,94166.00
2024-02-27T04:47:36.208Z,94168.00
2024-02-27T04:48:36.442Z,94172.00
2024-02-27T04:49:36.411Z,94173.00
2024-02-27T04:50:36.345Z,94179.00
2024-02-27T04:51:36.400Z,94177.00
2024-02-27T04:52:37.005Z,94181.00
2024-02-27T04:53:36.477Z,94179.00
2024-02-27T04:54:36.580Z,94180.00
2024-02-27T04:55:36.558Z,94180.00
2024-02-27T04:56:36.608Z,94181.00
2024-02-27T04:57:36.698Z,94181.00
2024-02-27T04:58:36.724Z,94178.00
2024-02-27T04:59:36.762Z,94176.00
2024-02-27T05:00:36.902Z,94173.00
2024-02-27T05:01:36.878Z,94175.00
2024-02-27T05:02:36.935Z,94173.00
2024-02-27T05:03:37.439Z,94172.00
2024-02-27T05:04:37.076Z,94172.00
2024-02-27T05:05:37.106Z,94171.00
2024-02-27T05:06:37.177Z,94174.00
2024-02-27T05:07:37.178Z,94176.00
2024-02-27T05:08:37.302Z,94177.00
2024-02-27T05:09:37.343Z,94176.00
2024-02-27T05:10:37.303Z,94176.00
2024-02-27T05:11:37.316Z,94175.00
2024-02-27T05:12:37.430Z,94176.00
2024-02-27T05:13:37.426Z,94179.00
2024-02-27T05:14:37.479Z,94179.00
2024-02-27T05:15:37.810Z,94180.00
2024-02-27T05:16:37.551Z,94179.00
2024-02-27T05:17:37.645Z,94184.00
2024-02-27T05:18:37.794Z,94180.00
2024-02-27T05:19:37.763Z,94182.00
2024-02-27T05:20:37.739Z,94184.00
2024-02-27T05:21:37.771Z,94184.00
2024-02-27T05:22:37.832Z,94186.00
2024-02-27T05:23:37.931Z,94188.00
2024-02-27T05:24:38.144Z,94188.00
2024-02-27T05:25:37.970Z,94190.00
2024-02-27T05:26:37.989Z,94193.00
2024-02-27T05:27:38.204Z,94192.00
2024-02-27T05:28:38.117Z,94194.00
2024-02-27T05:29:38.164Z,94194.00
2024-02-27T05:30:38.252Z,94191.00
2024-02-27T05:31:38.243Z,94195.00
2024-02-27T05:32:38.321Z,94195.00
2024-02-27T05:33:38.548Z,94196.00
2024-02-27T05:34:38.524Z,94196.00
2024-02-27T05:35:46.079Z,94198.00
2024-02-27T05:36:46.099Z,94200.00
2024-02-27T05:37:46.160Z,94202.00
2024-02-27T05:38:46.105Z,94202.00
2024-02-27T05:39:46.171Z,94202.00
2024-02-27T05:40:46.073Z,94202.00
2024-02-27T05:41:46.122Z,94204.00
2024-02-27T05:42:46.169Z,94203.00
2024-02-27T05:43:46.098Z,94202.00
2024-02-27T05:44:46.101Z,94202.00
2024-02-27T05:45:46.126Z,94201.00
2024-02-27T05:46:46.104Z,94203.00
2024-02-27T05:47:46.142Z,94204.00
2024-02-27T05:48:46.242Z,94203.00
2024-02-27T05:49:46.165Z,94204.00
2024-02-27T05:50:46.116Z,94203.00
2024-02-27T05:51:46.184Z,94205.00
2024-02-27T05:52:46.119Z,94206.00
2024-02-27T05:53:46.133Z,94207.00
2024-02-27T05:54:46.253Z,94207.00
2024-02-27T05:55:46.199Z,94210.00
2024-02-27T05:56:46.143Z,94215.00
2024-02-27T05:57:46.191Z,94216.00
2024-02-27T05:58:46.138Z,94220.00
2024-02-27T05:59:46.147Z,94220.00
2024-02-27T06:00:46.182Z,94222.00
2024-02-27T06:01:46.148Z,94223.00
2024-02-27T06:02:46.200Z,94222.00
2024-02-27T06:04:46.176Z,94223.00
2024-02-27T06:05:46.155Z,94226.00
2024-02-27T06:06:46.255Z,94226.00
2024-02-27T06:07:46.230Z,94228.00
2024-02-27T06:08:46.140Z,94230.00
2024-02-27T06:09:46.246Z,94230.00
2024-02-27T06:10:46.186Z,94228.00
2024-02-27T06:11:46.234Z,94230.00
2024-02-27T06:12:46.197Z,94230.00
2024-02-27T06:13:46.188Z,94229.00
2024-02-27T06:14:46.191Z,94230.00
2024-02-27T06:15:46.226Z,94228.00
2024-02-27T06:16:46.199Z,94232.00
2024-02-27T06:17:46.223Z,94233.00
2024-02-27T06:18:46.216Z,94233.00
2024-02-27T06:19:46.248Z,94237.00
2024-02-27T06:20:46.191Z,94237.00
2024-02-27T06:21:46.228Z,94237.00
2024-02-27T06:22:46.208Z,94237.00
2024-02-27T06:23:46.734Z,94239.00
2024-02-27T06:24:46.320Z,94240.00
2024-02-27T06:25:46.270Z,94240.00
2024-02-27T06:26:46.177Z,94242.00
2024-02-27T06:27:46.340Z,94240.00
2024-02-27T06:28:46.209Z,94240.00
2024-02-27T06:29:46.260Z,94242.00
2024-02-27T06:30:46.256Z,94242.00
2024-02-27T06:31:46.208Z,94241.00
2024-02-27T06:32:46.237Z,94243.00
2024-02-27T06:33:46.409Z,94243.00
2024-02-27T06:34:46.335Z,94245.00
2024-02-27T06:35:46.232Z,94244.00
2024-02-27T06:36:46.240Z,94246.00
2024-02-27T06:37:46.222Z,94246.00
2024-02-27T06:38:46.203Z,94249.00
2024-02-27T06:39:46.266Z,94247.00
2024-02-27T06:40:46.258Z,94248.00
2024-02-27T06:41:46.255Z,94249.00
2024-02-27T06:42:46.248Z,94249.00
2024-02-27T06:43:46.779Z,94249.00
2024-02-27T06:44:46.255Z,94248.00
2024-02-27T06:45:46.245Z,94247.00
2024-02-27T06:46:46.222Z,94248.00
2024-02-27T06:47:46.325Z,94249.00
2024-02-27T06:48:46.324Z,94250.00
2024-02-27T06:49:46.452Z,94249.00
2024-02-27T06:50:47.067Z,94251.00
2024-02-27T06:51:46.253Z,94252.00
2024-02-27T06:52:46.243Z,94252.00
2024-02-27T06:53:46.715Z,94251.00
2024-02-27T06:54:46.272Z,94253.00
2024-02-27T06:55:46.322Z,94251.00
2024-02-27T06:56:46.283Z,94252.00
2024-02-27T06:57:46.863Z,94251.00
2024-02-27T06:58:46.693Z,94254.00
2024-02-27T06:59:46.363Z,94257.00
2024-02-27T07:00:46.494Z,94258.00
2024-02-27T07:01:46.366Z,94261.00
2024-02-27T07:02:48.416Z,94263.00
2024-02-27T07:03:46.329Z,94262.00
2024-02-27T07:04:46.333Z,94262.00
2024-02-27T07:05:53.045Z,94264.00
2024-02-27T07:06:47.457Z,94264.00
2024-02-27T07:07:46.297Z,94263.00
2024-02-27T07:08:46.294Z,94267.00
2024-02-27T07:09:46.324Z,94270.00
2024-02-27T07:10:46.304Z,94272.00
2024-02-27T07:11:46.327Z,94273.00
2024-02-27T07:12:46.290Z,94276.00
2024-02-27T07:13:46.307Z,94277.00
2024-02-27T07:14:46.353Z,94276.00
2024-02-27T07:15:46.402Z,94276.00
2024-02-27T07:16:46.300Z,94277.00
2024-02-27T07:17:46.426Z,94275.00
2024-02-27T07:18:46.754Z,94276.00
2024-02-27T07:19:46.306Z,94274.00
2024-02-27T07:20:46.422Z,94273.00
2024-02-27T07:21:46.334Z,94273.00
2024-02-27T07:22:46.330Z,94272.00
2024-02-27T07:23:46.717Z,94273.00
2024-02-27T07:24:46.354Z,94272.00
2024-02-27T07:25:46.312Z,94273.00
2024-02-27T07:26:46.311Z,94272.00
2024-02-27T07:27:46.367Z,94271.00
2024-02-27T07:28:46.333Z,94270.00
2024-02-27T07:29:46.406Z,94270.00
2024-02-27T07:30:46.449Z,94271.00
2024-02-27T07:31:46.469Z,94270.00
2024-02-27T07:32:46.459Z,94272.00
2024-02-27T07:33:46.764Z,94271.00
2024-02-27T07:34:46.537Z,94275.00
2024-02-27T07:35:46.662Z,94274.00
2024-02-27T07:36:46.521Z,94276.00
2024-02-27T07:37:46.497Z,94277.00
2024-02-27T07:38:46.720Z,94278.00
2024-02-27T07:39:46.667Z,94281.00
2024-02-27T07:40:46.580Z,94281.00
2024-02-27T07:41:46.569Z,94281.00
2024-02-27T07:42:46.604Z,94282.00
2024-02-27T07:43:46.576Z,94285.00
2024-02-27T07:44:46.589Z,94288.00
2024-02-27T07:45:46.679Z,94289.00
2024-02-27T07:46:46.656Z,94289.00
2024-02-27T07:47:46.762Z,94291.00
2024-02-27T07:48:46.692Z,94288.00
2024-02-27T07:49:46.631Z,94286.00
2024-02-27T07:50:46.690Z,94286.00
2024-02-27T07:51:46.742Z,94289.00
2024-02-27T07:52:46.696Z,94290.00
2024-02-27T07:53:47.219Z,94288.00
2024-02-27T07:54:46.767Z,94290.00
2024-02-27T07:55:46.783Z,94288.00
2024-02-27T07:56:46.836Z,94290.00
2024-02-27T07:57:46.913Z,94290.00
2024-02-27T07:58:47.201Z,94291.00
2024-02-27T07:59:47.060Z,94291.00
2024-02-27T08:00:47.197Z,94293.00
2024-02-27T08:01:47.197Z,94291.00
2024-02-27T08:02:47.201Z,94292.00
2024-02-27T08:03:47.472Z,94291.00
2024-02-27T08:04:47.333Z,94292.00
2024-02-27T08:05:47.427Z,94293.00
2024-02-27T08:06:47.573Z,94293.00
2024-02-27T08:07:47.735Z,94294.00
2024-02-27T08:08:47.694Z,94293.00
2024-02-27T08:09:47.725Z,94293.00
2024-02-27T08:10:47.856Z,94293.00
2024-02-27T08:11:47.835Z,94294.00
2024-02-27T08:12:47.885Z,94294.00
2024-02-27T08:13:48.222Z,94296.00
2024-02-27T08:14:48.041Z,94297.00
2024-02-27T08:15:48.190Z,94300.00
2024-02-27T08:16:48.148Z,94300.00
2024-02-27T08:17:48.272Z,94302.00
2024-02-27T08:18:48.366Z,94302.00
2024-02-27T08:19:48.584Z,94302.00
2024-02-27T08:20:48.433Z,94304.00
2024-02-27T08:21:48.536Z,94301.00
2024-02-27T08:22:48.585Z,94302.00
2024-02-27T08:23:48.682Z,94302.00
2024-02-27T08:24:48.724Z,94301.00
2024-02-27T08:25:48.802Z,94305.00
2024-02-27T08:26:50.744Z,94306.00
2024-02-27T08:27:49.128Z,94306.00
2024-02-27T08:28:48.881Z,94305.00
2024-02-27T08:29:48.864Z,94307.00
2024-02-27T08:30:49.092Z,94308.00
2024-02-27T08:31:49.033Z,94312.00
2024-02-27T08:32:50.754Z,94313.00
2024-02-27T08:33:49.388Z,94313.00
2024-02-27T08:34:48.971Z,94314.00
2024-02-27T08:35:48.985Z,94315.00
2024-02-27T08:36:48.961Z,94312.00
2024-02-27T08:37:48.908Z,94314.00
2024-02-27T08:38:48.897Z,94313.00
2024-02-27T08:39:48.885Z,94317.00
2024-02-27T08:40:48.900Z,94316.00
2024-02-27T08:41:48.993Z,94313.00
2024-02-27T08:42:48.979Z,94317.00
2024-02-27T08:43:49.239Z,94318.00
2024-02-27T08:44:49.068Z,94319.00
2024-02-27T08:45:49.122Z,94318.00
2024-02-27T08:46:49.121Z,94320.00
2024-02-27T08:47:49.184Z,94319.00
2024-02-27T08:48:49.466Z,94317.00
2024-02-27T08:49:49.261Z,94315.00
2024-02-27T08:50:49.187Z,94316.00
2024-02-27T08:51:49.287Z,94315.00
2024-02-27T08:52:49.247Z,94315.00
2024-02-27T08:53:49.747Z,94314.00
2024-02-27T08:54:49.292Z,94311.00
2024-02-27T08:55:49.340Z,94310.00
2024-02-27T08:56:49.316Z,94312.00
2024-02-27T08:57:49.370Z,94314.00
2024-02-27T08:58:49.410Z,94316.00
2024-02-27T08:59:49.470Z,94318.00
2024-02-27T09:00:49.595Z,94317.00
2024-02-27T09:01:49.440Z,94321.00
2024-02-27T09:02:49.483Z,94318.00
2024-02-27T09:03:49.788Z,94321.00
2024-02-27T09:04:49.530Z,94321.00
2024-02-27T09:05:49.578Z,94321.00
2024-02-27T09:06:49.759Z,94324.00
2024-02-27T09:07:49.678Z,94326.00
2024-02-27T09:08:49.617Z,94324.00
2024-02-27T09:09:49.726Z,94328.00
2024-02-27T09:10:49.627Z,94327.00
2024-02-27T09:11:49.648Z,94330.00
2024-02-27T09:12:49.707Z,94331.00
2024-02-27T09:13:49.763Z,94329.00
2024-02-27T09:14:49.677Z,94333.00
2024-02-27T09:15:49.856Z,94334.00
2024-02-27T09:16:49.695Z,94332.00
2024-02-27T09:17:50.024Z,94332.00
2024-02-27T09:18:50.413Z,94334.00
2024-02-27T09:19:50.010Z,94335.00
2024-02-27T09:20:50.001Z,94334.00
2024-02-27T09:21:50.030Z,94335.00
2024-02-27T09:22:50.062Z,94335.00
2024-02-27T09:23:50.183Z,94337.00
2024-02-27T09:24:50.236Z,94339.00
2024-02-27T09:25:50.282Z,94340.00
2024-02-27T09:26:50.488Z,94341.00
2024-02-27T09:27:50.550Z,94342.00
2024-02-27T09:28:50.737Z,94341.00
2024-02-27T09:29:50.608Z,94341.00
2024-02-27T09:30:50.661Z,94342.00
2024-02-27T09:31:50.761Z,94342.00
2024-02-27T09:32:50.798Z,94343.00
2024-02-27T09:33:50.967Z,94343.00
2024-02-27T09:34:51.120Z,94347.00
2024-02-27T09:35:50.887Z,94350.00
2024-02-27T09:36:50.932Z,94352.00
2024-02-27T09:37:50.927Z,94350.00
2024-02-27T09:38:51.245Z,94352.00
2024-02-27T09:39:58.050Z,94352.00
2024-02-27T09:40:52.016Z,94349.00
2024-02-27T09:41:51.075Z,94351.00
2024-02-27T09:42:51.126Z,94348.00
2024-02-27T09:43:51.347Z,94349.00
2024-02-27T09:44:51.011Z,94346.00
2024-02-27T09:45:51.111Z,94346.00
2024-02-27T09:46:51.032Z,94344.00
2024-02-27T09:47:51.208Z,94342.00
2024-02-27T09:48:51.396Z,94344.00
2024-02-27T09:49:51.081Z,94341.00
2024-02-27T09:50:50.992Z,94342.00
2024-02-27T09:51:51.007Z,94344.00
2024-02-27T09:52:51.043Z,94343.00
2024-02-27T09:53:51.230Z,94345.00
2024-02-27T09:54:51.044Z,94346.00
2024-02-27T09:55:51.105Z,94345.00
2024-02-27T09:56:51.094Z,94346.00
2024-02-27T09:57:51.505Z,94346.00
2024-02-27T09:58:51.269Z,94343.00
2024-02-27T09:59:51.167Z,94343.00
2024-02-27T10:00:51.311Z,94345.00
2024-02-27T10:01:51.429Z,94342.00
2024-02-27T10:02:51.392Z,94342.00
2024-02-27T10:03:51.825Z,94342.00
2024-02-27T10:04:51.389Z,94341.00
2024-02-27T10:05:51.474Z,94341.00
2024-02-27T10:06:51.583Z,94342.00
2024-02-27T10:07:51.624Z,94344.00
2024-02-27T10:08:51.750Z,94340.00
2024-02-27T10:09:51.564Z,94342.00
2024-02-27T10:10:51.642Z,94343.00
2024-02-27T10:11:51.597Z,94343.00
2024-02-27T10:12:51.660Z,94346.00
2024-02-27T10:13:51.758Z,94345.00
2024-02-27T10:14:51.790Z,94341.00
2024-02-27T10:15:51.808Z,94342.00
2024-02-27T10:16:51.804Z,94340.00
2024-02-27T10:17:51.944Z,94339.00
2024-02-27T10:18:51.988Z,94337.00
2024-02-27T10:19:51.920Z,94335.00
2024-02-27T10:20:51.953Z,94338.00
2024-02-27T10:21:51.936Z,94338.00
2024-02-27T10:22:52.039Z,94338.00
2024-02-27T10:23:52.306Z,94339.00
2024-02-27T10:24:52.001Z,94339.00
2024-02-27T10:25:51.956Z,94341.00
2024-02-27T10:26:51.985Z,94344.00
2024-02-27T10:27:51.979Z,94343.00
2024-02-27T10:28:52.258Z,94340.00
2024-02-27T10:29:52.039Z,94340.00
2024-02-27T10:30:52.087Z,94341.00
2024-02-27T10:31:52.127Z,94338.00
2024-02-27T10:32:52.243Z,94339.00
2024-02-27T10:33:52.339Z,94335.00
2024-02-27T10:34:52.491Z,94334.00
2024-02-27T10:35:52.328Z,94333.00
2024-02-27T10:36:52.342Z,94336.00
2024-02-27T10:37:52.363Z,94336.00
2024-02-27T10:38:52.420Z,94337.00
2024-02-27T10:39:52.391Z,94333.00
2024-02-27T10:40:52.391Z,94335.00
2024-02-27T10:41:52.429Z,94335.00
2024-02-27T10:42:52.525Z,94335.00
2024-02-27T10:43:55.390Z,94333.00
2024-02-27T10:44:52.417Z,94334.00
2024-02-27T10:45:52.490Z,94334.00
2024-02-27T10:46:52.446Z,94328.00
2024-02-27T10:47:52.510Z,94330.00
2024-02-27T10:48:52.908Z,94330.00
2024-02-27T10:49:52.472Z,94326.00
2024-02-27T10:50:52.465Z,94327.00
2024-02-27T10:51:52.461Z,94326.00
2024-02-27T10:52:52.489Z,94327.00
2024-02-27T10:53:52.480Z,94327.00
2024-02-27T10:54:52.489Z,94326.00
2024-02-27T10:55:52.469Z,94323.00
2024-02-27T10:56:52.486Z,94322.00
2024-02-27T10:57:52.540Z,94319.00
2024-02-27T10:58:52.750Z,94322.00
2024-02-27T10:59:52.510Z,94318.00
2024-02-27T11:00:52.572Z,94319.00
2024-02-27T11:01:52.541Z,94318.00
2024-02-27T11:02:52.548Z,94317.00
2024-02-27T11:03:52.526Z,94319.00
2024-02-27T11:04:52.636Z,94318.00
2024-02-27T11:05:52.619Z,94317.00
2024-02-27T11:06:52.718Z,94314.00
2024-02-27T11:07:52.613Z,94314.00
2024-02-27T11:08:52.771Z,94315.00
2024-02-27T11:09:52.810Z,94316.00
2024-02-27T11:10:53.877Z,94315.00
2024-02-27T11:11:52.887Z,94318.00
2024-02-27T11:12:52.966Z,94315.00
2024-02-27T11:13:53.283Z,94318.00
2024-02-27T11:14:52.956Z,94314.00
2024-02-27T11:15:53.032Z,94313.00
2024-02-27T11:16:52.958Z,94313.00
2024-02-27T11:17:53.021Z,94310.00
2024-02-27T11:18:53.443Z,94307.00
2024-02-27T11:19:53.185Z,94307.00
2024-02-27T11:20:53.030Z,94305.00
2024-02-27T11:21:53.125Z,94305.00
2024-02-27T11:22:53.099Z,94304.00
2024-02-27T11:23:53.274Z,94301.00
2024-02-27T11:24:53.214Z,94305.00
2024-02-27T11:25:53.285Z,94299.00
2024-02-27T11:26:53.228Z,94297.00
2024-02-27T11:27:53.250Z,94298.00
2024-02-27T11:28:53.268Z,94292.00
2024-02-27T11:29:53.350Z,94290.00
2024-02-27T11:30:53.402Z,94287.00
2024-02-27T11:31:54.289Z,94286.00
2024-02-27T11:33:54.024Z,94286.00
2024-02-27T11:34:53.779Z,94283.00
2024-02-27T11:35:53.654Z,94282.00
2024-02-27T11:36:53.762Z,94280.00
2024-02-27T11:37:53.804Z,94275.00
2024-02-27T11:39:16.944Z,94278.00
2024-02-27T11:39:53.942Z,94279.00
2024-02-27T11:40:54.260Z,94278.00
2024-02-27T11:41:53.869Z,94277.00
2024-02-27T11:42:53.901Z,94279.00
2024-02-27T11:43:54.295Z,94281.00
2024-02-27T11:44:53.869Z,94279.00
2024-02-27T11:45:53.912Z,94277.00
2024-02-27T11:46:53.879Z,94274.00
2024-02-27T11:47:54.209Z,94274.00